首页
METAR-TAF:

METAR-TAF

机场 :

Monroe Municipal Airport

门罗, 威斯康辛州, 美国

纬度: 42-36-54N, 经度: 089-35-27W, 海拔: 331米

当前天气观测

该预报发布于26分钟前的16:55 UTC
风速5节,风向北转东北
温度 17°C
湿度 77%
气压 1017 hPa
能見度: 16.1公里
阴天层高于1100英尺

METAR: KEFT 171655Z AUTO 02005KT 10SM OVC011 17/13 A3003 RMK AO2 T01660134

时间: 12:21 (17:21 UTC)


TAF: 丢失

超过4000个机场的气象观测和天气预报(METAR&TAF报告)。

可查询的气象台以黄色和红色小点在地图上表示。

将鼠标移到小点上方,可查看气象台名称。

然后点击查看天气观测和预报。

如需切换地图:点击带黑十字的绿色按钮放大地图;点击带横线的绿色按钮缩小地图;或者点击绿色箭头查看邻近地区的地图。


METAR-TAF: